Time;durP1;ratioP1;P1;durP2;ratioP2;P2;SDS_P1;SDS_P2;PMS_P1;PMS_P2;Temp;Humidity;BMP_temperature;BMP_pressure;BME280_temperature;BME280_humidity;BME280_pressure;Samples;Min_cycle;Max_cycle;Signal;HPM_P1;HPM_P2
2023/05/16 15:38:02;;;;;;;0.00;0.00;;;16.60;99.90;;;;;;5059385;27;20648;-74
2023/05/16 15:40:28;;;;;;;0.00;0.00;;;16.40;99.90;;;;;;5052639;28;20192;-74
2023/05/16 15:42:53;;;;;;;0.00;0.00;;;16.60;99.90;;;;;;5052401;28;20180;-74
2023/05/16 15:45:19;;;;;;;0.00;0.00;;;16.70;99.90;;;;;;5055855;28;20184;-73
2023/05/16 15:47:45;;;;;;;0.00;0.00;;;16.80;99.90;;;;;;5045223;28;20547;-74
2023/05/16 15:50:12;;;;;;;0.00;0.00;;;17.00;99.90;;;;;;5053573;28;20178;-73
2023/05/16 15:52:38;;;;;;;0.00;0.00;;;17.20;99.90;;;;;;5060028;28;20203;-73
2023/05/16 15:55:04;;;;;;;0.00;0.00;;;17.40;99.90;;;;;;5058755;28;20178;-74
2023/05/16 15:57:30;;;;;;;0.00;0.00;;;17.80;99.90;;;;;;5056771;28;20581;-73
2023/05/16 15:59:56;;;;;;;0.00;0.00;;;17.90;99.90;;;;;;5057625;28;20226;-73
2023/05/16 16:02:21;;;;;;;0.00;0.00;;;18.00;99.90;;;;;;5058339;28;20172;-74
2023/05/16 16:04:50;;;;;;;0.00;0.00;;;17.90;99.90;;;;;;5050396;28;20180;-74
2023/05/16 16:07:16;;;;;;;0.08;0.08;;;17.80;99.90;;;;;;5052614;28;20741;-73
2023/05/16 16:09:42;;;;;;;0.00;0.00;;;18.00;99.90;;;;;;5053364;28;20312;-76
2023/05/16 16:12:07;;;;;;;0.00;0.00;;;18.20;99.90;;;;;;5055352;28;20188;-75
2023/05/16 16:14:33;;;;;;;0.28;0.28;;;18.20;99.90;;;;;;5060445;28;20222;-77
2023/05/16 16:16:59;;;;;;;0.00;0.00;;;18.40;99.90;;;;;;5054371;28;20202;-76
2023/05/16 16:19:25;;;;;;;0.75;0.60;;;18.10;99.90;;;;;;5053601;28;20732;-76
2023/05/16 16:21:51;;;;;;;0.00;0.00;;;18.00;99.90;;;;;;5051190;28;20171;-76
2023/05/16 16:24:16;;;;;;;0.00;0.00;;;17.90;99.90;;;;;;5054433;28;20185;-74
2023/05/16 16:26:42;;;;;;;0.00;0.00;;;17.80;99.90;;;;;;5059122;28;20179;-74
2023/05/16 16:29:08;;;;;;;0.00;0.00;;;17.60;99.90;;;;;;5058659;28;20582;-76
2023/05/16 16:31:33;;;;;;;0.00;0.00;;;17.50;99.90;;;;;;5049342;28;20744;-75
2023/05/16 16:33:59;;;;;;;0.00;0.00;;;17.20;99.90;;;;;;5058513;28;20602;-76
2023/05/16 16:36:25;;;;;;;0.00;0.00;;;17.00;99.90;;;;;;5055305;28;20209;-79
2023/05/16 16:38:50;;;;;;;0.00;0.00;;;16.70;99.90;;;;;;5054693;28;20247;-76
2023/05/16 16:41:16;;;;;;;0.17;0.17;;;16.20;99.90;;;;;;5056121;28;20553;-77
2023/05/16 16:43:41;;;;;;;0.00;0.00;;;15.80;99.90;;;;;;5056197;28;20597;-75
2023/05/16 16:46:07;;;;;;;0.00;0.00;;;15.50;99.90;;;;;;5059947;28;20200;-74
2023/05/16 16:48:33;;;;;;;0.08;0.08;;;15.30;99.90;;;;;;5051767;28;20242;-80
2023/05/16 16:51:00;;;;;;;0.00;0.00;;;15.00;99.90;;;;;;5040892;28;20859;-77
2023/05/16 16:53:25;;;;;;;0.00;0.00;;;14.90;99.90;;;;;;5042883;28;20184;-75
2023/05/16 16:55:51;;;;;;;0.00;0.00;;;14.80;99.90;;;;;;5048554;28;20172;-76
2023/05/16 16:58:17;;;;;;;0.00;0.00;;;14.60;99.90;;;;;;5037671;28;20245;-74
2023/05/16 17:00:43;;;;;;;0.00;0.00;;;14.50;99.90;;;;;;5046122;28;20259;-75
2023/05/16 17:03:09;;;;;;;0.00;0.00;;;14.50;99.90;;;;;;5038579;28;20176;-74
2023/05/16 17:05:34;;;;;;;0.38;0.38;;;14.40;99.90;;;;;;5038601;28;20799;-78
2023/05/16 17:08:00;;;;;;;8.75;4.18;;;14.40;99.90;;;;;;5047440;28;20286;-76
2023/05/16 17:10:26;;;;;;;0.00;0.00;;;14.40;99.90;;;;;;5042996;28;20546;-74
2023/05/16 17:12:53;;;;;;;0.00;0.00;;;14.40;99.90;;;;;;5045701;28;20226;-76
2023/05/16 17:15:18;;;;;;;0.00;0.00;;;14.30;99.90;;;;;;5043675;28;20271;-77
2023/05/16 17:17:44;;;;;;;0.00;0.00;;;14.30;99.90;;;;;;5037354;28;20711;-79
2023/05/16 17:20:11;;;;;;;0.00;0.00;;;14.20;99.90;;;;;;5045394;28;20187;-80
2023/05/16 17:22:38;;;;;;;0.13;0.13;;;14.20;99.90;;;;;;5042596;28;20180;-77
2023/05/16 17:25:04;;;;;;;0.00;0.00;;;14.20;99.90;;;;;;5040353;28;20172;-77
2023/05/16 17:27:30;;;;;;;0.00;0.00;;;14.20;99.90;;;;;;5038396;28;20187;-75
2023/05/16 17:29:56;;;;;;;0.00;0.00;;;14.10;99.90;;;;;;5029147;28;20687;-76
2023/05/16 17:32:22;;;;;;;0.00;0.00;;;14.00;99.90;;;;;;5036587;28;20227;-74
2023/05/16 17:34:48;;;;;;;0.00;0.00;;;13.90;99.90;;;;;;5040294;28;20180;-76
2023/05/16 17:37:15;;;;;;;0.10;0.10;;;13.90;99.90;;;;;;5037894;28;20215;-77
2023/05/16 17:39:40;;;;;;;0.00;0.00;;;13.80;99.90;;;;;;5042476;28;20708;-75
2023/05/16 17:42:08;;;;;;;0.00;0.00;;;13.70;99.90;;;;;;5044925;28;20269;-74
2023/05/16 17:44:35;;;;;;;0.00;0.00;;;13.60;99.90;;;;;;5038634;28;20172;-78
2023/05/16 17:47:01;;;;;;;0.15;0.15;;;13.50;99.90;;;;;;5047788;28;20650;-74
2023/05/16 17:49:26;;;;;;;0.00;0.00;;;13.50;99.90;;;;;;5037971;28;20220;-74
2023/05/16 17:51:53;;;;;;;0.00;0.00;;;13.40;99.90;;;;;;5040171;28;20274;-73
2023/05/16 17:54:21;;;;;;;0.00;0.00;;;13.30;99.90;;;;;;5035770;28;20196;-72
2023/05/16 17:56:48;;;;;;;0.00;0.00;;;13.30;99.90;;;;;;5037527;28;20556;-74
2023/05/16 17:59:14;;;;;;;0.00;0.00;;;13.30;99.90;;;;;;5044145;28;20671;-73
2023/05/16 18:01:40;;;;;;;0.10;0.10;;;13.30;99.90;;;;;;5027392;28;20181;-74
2023/05/16 18:04:07;;;;;;;0.00;0.00;;;13.20;99.90;;;;;;5034922;28;20177;-73
2023/05/16 18:06:33;;;;;;;0.10;0.10;;;13.10;99.90;;;;;;5036316;28;20189;-75
2023/05/16 18:08:59;;;;;;;0.00;0.00;;;13.10;99.90;;;;;;5041925;28;20200;-75
2023/05/16 18:11:25;;;;;;;0.00;0.00;;;13.10;99.90;;;;;;5035448;28;20184;-74
2023/05/16 18:13:51;;;;;;;0.00;0.00;;;13.00;99.90;;;;;;5033583;28;20224;-75
2023/05/16 18:16:16;;;;;;;0.00;0.00;;;13.00;99.90;;;;;;5036920;28;20231;-74
2023/05/16 18:18:42;;;;;;;0.00;0.00;;;13.00;99.90;;;;;;5045601;28;20207;-74
2023/05/16 18:21:08;;;;;;;0.00;0.00;;;13.00;99.90;;;;;;5042617;28;20184;-74
2023/05/16 18:23:33;;;;;;;0.00;0.00;;;12.90;99.90;;;;;;5043723;28;20192;-75
2023/05/16 18:25:59;;;;;;;0.00;0.00;;;12.90;99.90;;;;;;5043200;28;20175;-74
2023/05/16 18:28:25;;;;;;;0.00;0.00;;;12.80;99.90;;;;;;5035191;28;20601;-75
2023/05/16 18:30:50;;;;;;;0.03;0.03;;;12.80;99.90;;;;;;5036970;28;20177;-72
2023/05/16 18:33:16;;;;;;;0.10;0.10;;;12.70;99.90;;;;;;5037673;28;20176;-72
2023/05/16 18:35:41;;;;;;;0.00;0.00;;;12.70;99.90;;;;;;5040715;28;20266;-74
2023/05/16 18:38:07;;;;;;;0.05;0.05;;;12.60;99.90;;;;;;5038233;28;20594;-73
2023/05/16 18:40:33;;;;;;;0.00;0.00;;;12.50;99.90;;;;;;5041103;28;20173;-74
2023/05/16 18:42:58;;;;;;;0.00;0.00;;;12.50;99.90;;;;;;5043032;28;20180;-74
2023/05/16 18:45:24;;;;;;;0.00;0.00;;;12.50;99.90;;;;;;5032301;28;20547;-76
2023/05/16 18:47:50;;;;;;;0.00;0.00;;;12.50;99.90;;;;;;5040605;28;20211;-74
2023/05/16 18:50:16;;;;;;;0.00;0.00;;;12.40;99.90;;;;;;5036214;28;20191;-74
2023/05/16 18:52:41;;;;;;;0.00;0.00;;;12.40;99.90;;;;;;5035396;28;20271;-74
2023/05/16 18:55:07;;;;;;;0.00;0.00;;;12.30;99.90;;;;;;5031598;28;20192;-73
2023/05/16 18:57:33;;;;;;;0.00;0.00;;;12.20;99.90;;;;;;5041686;28;20208;-74
2023/05/16 18:59:59;;;;;;;0.10;0.10;;;12.20;99.90;;;;;;5027816;28;20606;-74
2023/05/16 19:02:25;;;;;;;0.00;0.00;;;12.10;99.90;;;;;;5041820;28;20469;-74
2023/05/16 19:04:50;;;;;;;0.00;0.00;;;12.00;99.90;;;;;;5033626;28;20180;-74
2023/05/16 19:07:16;;;;;;;0.00;0.00;;;12.00;99.90;;;;;;5043325;28;20184;-73
2023/05/16 19:09:41;;;;;;;0.00;0.00;;;12.00;99.90;;;;;;5030548;28;20287;-73
2023/05/16 19:12:09;;;;;;;0.00;0.00;;;11.90;99.90;;;;;;5048315;28;20184;-72
2023/05/16 19:14:35;;;;;;;0.00;0.00;;;11.90;99.90;;;;;;5039629;28;20574;-73
2023/05/16 19:17:00;;;;;;;0.20;0.20;;;11.80;99.90;;;;;;5045862;28;20258;-73
2023/05/16 19:19:26;;;;;;;0.00;0.00;;;11.80;99.90;;;;;;5029650;28;20215;-73
2023/05/16 19:21:52;;;;;;;0.03;0.03;;;11.80;99.90;;;;;;5034124;28;20193;-73
2023/05/16 19:24:18;;;;;;;0.00;0.00;;;11.80;99.90;;;;;;5031861;28;20641;-74
2023/05/16 19:26:44;;;;;;;0.00;0.00;;;11.70;99.90;;;;;;5033770;28;20197;-74
2023/05/16 19:29:09;;;;;;;0.00;0.00;;;11.70;99.90;;;;;;5031860;28;20203;-73
2023/05/16 19:31:35;;;;;;;0.00;0.00;;;11.60;99.90;;;;;;5037456;28;20180;-74
2023/05/16 19:34:01;;;;;;;0.00;0.00;;;11.60;99.90;;;;;;5039747;28;20175;-73
2023/05/16 19:36:27;;;;;;;0.00;0.00;;;11.60;99.90;;;;;;5038853;28;20212;-73
2023/05/16 19:38:53;;;;;;;0.00;0.00;;;11.50;99.90;;;;;;5034999;28;20618;-73
2023/05/16 19:41:18;;;;;;;0.00;0.00;;;11.50;99.90;;;;;;5029559;28;20306;-74
2023/05/16 19:43:44;;;;;;;0.00;0.00;;;11.50;99.90;;;;;;5038606;28;20185;-75
2023/05/16 19:46:09;;;;;;;0.05;0.05;;;11.50;99.90;;;;;;5038908;28;20306;-73
2023/05/16 19:48:36;;;;;;;0.00;0.00;;;11.50;99.90;;;;;;5040053;28;20207;-75
2023/05/16 19:51:01;;;;;;;0.00;0.00;;;11.50;99.90;;;;;;5031648;28;20175;-74
2023/05/16 19:53:27;;;;;;;0.00;0.00;;;11.50;99.90;;;;;;5034276;28;20195;-73
2023/05/16 19:55:52;;;;;;;0.00;0.00;;;11.60;99.90;;;;;;5027982;28;20184;-75
2023/05/16 19:58:18;;;;;;;0.00;0.00;;;11.60;99.90;;;;;;5036408;28;20235;-74
2023/05/16 20:00:45;;;;;;;0.00;0.00;;;11.60;99.90;;;;;;5037524;28;20185;-74
2023/05/16 20:03:11;;;;;;;0.00;0.00;;;11.60;99.90;;;;;;5037086;28;20177;-76
2023/05/16 20:05:36;;;;;;;0.00;0.00;;;11.60;99.90;;;;;;5039495;28;20689;-74
2023/05/16 20:08:02;;;;;;;0.00;0.00;;;11.60;99.90;;;;;;5036343;28;20594;-75
2023/05/16 20:10:28;;;;;;;0.00;0.00;;;11.60;99.90;;;;;;5033792;28;20261;-75
2023/05/16 20:12:54;;;;;;;0.00;0.00;;;11.50;99.90;;;;;;5038269;28;20223;-74
2023/05/16 20:15:19;;;;;;;0.00;0.00;;;11.50;99.90;;;;;;5038482;28;20604;-75
2023/05/16 20:17:45;;;;;;;0.08;0.08;;;11.50;99.90;;;;;;5028831;28;20223;-75
2023/05/16 20:20:10;;;;;;;0.00;0.00;;;11.50;99.90;;;;;;5032449;28;20189;-79
2023/05/16 20:22:40;;;;;;;0.00;0.00;;;11.50;99.90;;;;;;5032289;28;20179;-74
2023/05/16 20:25:07;;;;;;;0.00;0.00;;;11.40;99.90;;;;;;5026586;28;20188;-74
2023/05/16 20:27:34;;;;;;;0.00;0.00;;;11.40;99.90;;;;;;5028527;28;20184;-75
2023/05/16 20:30:00;;;;;;;0.00;0.00;;;11.40;99.90;;;;;;5037614;28;20180;-74
2023/05/16 20:32:26;;;;;;;0.00;0.00;;;11.50;99.90;;;;;;5039433;28;20176;-75
2023/05/16 20:34:52;;;;;;;0.00;0.00;;;11.50;99.90;;;;;;5039540;28;20188;-74
2023/05/16 20:37:19;;;;;;;0.00;0.00;;;11.50;99.90;;;;;;5035782;28;20287;-73
2023/05/16 20:39:45;;;;;;;0.00;0.00;;;11.50;99.90;;;;;;5040064;28;20207;-76
2023/05/16 20:42:11;;;;;;;0.00;0.00;;;11.50;99.90;;;;;;5042623;28;20552;-73
2023/05/16 20:44:38;;;;;;;0.00;0.00;;;11.40;99.90;;;;;;5040402;28;20169;-75
2023/05/16 20:47:05;;;;;;;0.00;0.00;;;11.40;99.90;;;;;;5040910;28;20184;-74
2023/05/16 20:49:32;;;;;;;0.00;0.00;;;11.40;99.90;;;;;;5041652;28;20566;-73
2023/05/16 20:51:57;;;;;;;0.00;0.00;;;11.40;99.90;;;;;;5033830;28;20373;-76
2023/05/16 20:54:23;;;;;;;0.00;0.00;;;11.40;99.90;;;;;;5032879;28;20191;-76
2023/05/16 20:56:49;;;;;;;0.00;0.00;;;11.40;99.90;;;;;;5019068;28;20270;-76
2023/05/16 20:59:14;;;;;;;0.00;0.00;;;11.40;99.90;;;;;;5025780;28;20204;-76
2023/05/16 21:01:40;;;;;;;0.00;0.00;;;11.40;99.90;;;;;;5043397;28;20177;-76
2023/05/16 21:04:06;;;;;;;0.00;0.00;;;11.30;99.90;;;;;;5033182;28;20238;-76
2023/05/16 21:06:31;;;;;;;11.10;3.47;;;11.30;99.90;;;;;;5035801;28;20216;-75
2023/05/16 21:08:57;;;;;;;0.00;0.00;;;11.30;99.90;;;;;;5031810;28;21240;-75
2023/05/16 21:11:22;;;;;;;0.00;0.00;;;11.30;99.90;;;;;;5024938;28;20180;-76
2023/05/16 21:13:51;;;;;;;0.00;0.00;;;11.30;99.90;;;;;;5038810;28;20180;-76
2023/05/16 21:16:17;;;;;;;0.00;0.00;;;11.20;99.90;;;;;;5038880;28;20200;-76
2023/05/16 21:18:43;;;;;;;0.00;0.00;;;11.20;99.90;;;;;;5029910;28;20203;-76
2023/05/16 21:21:08;;;;;;;0.10;0.10;;;11.20;99.90;;;;;;5031465;28;20254;-76
2023/05/16 21:23:34;;;;;;;0.00;0.00;;;11.10;99.90;;;;;;5037622;28;20219;-76
2023/05/16 21:25:59;;;;;;;0.00;0.00;;;11.10;99.90;;;;;;5040470;28;20207;-76
2023/05/16 21:28:25;;;;;;;0.00;0.00;;;11.20;99.90;;;;;;5042559;28;20670;-76
2023/05/16 21:30:50;;;;;;;0.00;0.00;;;11.10;99.90;;;;;;5039185;28;20219;-77
2023/05/16 21:33:16;;;;;;;0.00;0.00;;;11.00;99.90;;;;;;5042672;28;20176;-75
2023/05/16 21:35:41;;;;;;;0.00;0.00;;;11.00;99.90;;;;;;5044662;28;20239;-75
2023/05/16 21:38:07;;;;;;;0.10;0.10;;;11.00;99.90;;;;;;5032716;28;20235;-76
2023/05/16 21:40:32;;;;;;;0.00;0.00;;;10.90;99.90;;;;;;5027541;28;20185;-76
2023/05/16 21:42:58;;;;;;;0.00;0.00;;;10.90;99.90;;;;;;5045140;28;20183;-75
2023/05/16 21:45:23;;;;;;;0.10;0.10;;;10.90;99.90;;;;;;5034179;28;20624;-76
2023/05/16 21:47:49;;;;;;;0.00;0.00;;;10.80;99.90;;;;;;5027634;28;20694;-76
2023/05/16 21:50:14;;;;;;;0.00;0.00;;;10.80;99.90;;;;;;5036434;28;20185;-76
2023/05/16 21:52:40;;;;;;;0.00;0.00;;;10.80;99.90;;;;;;5043829;28;20181;-76
2023/05/16 21:55:07;;;;;;;0.00;0.00;;;10.80;99.90;;;;;;5039959;28;20184;-76
2023/05/16 21:57:32;;;;;;;0.00;0.00;;;10.70;99.90;;;;;;5044183;28;20195;-76
2023/05/16 21:59:58;;;;;;;0.00;0.00;;;10.70;99.90;;;;;;5046930;28;20172;-76
2023/05/16 22:02:24;;;;;;;0.00;0.00;;;10.70;99.90;;;;;;5046762;28;20172;-76
2023/05/16 22:04:51;;;;;;;0.00;0.00;;;10.70;99.90;;;;;;5042985;28;20189;-76
2023/05/16 22:07:17;;;;;;;0.00;0.00;;;10.60;99.90;;;;;;5049836;28;20180;-77
2023/05/16 22:09:42;;;;;;;0.00;0.00;;;10.60;99.90;;;;;;5040580;28;20204;-77
2023/05/16 22:12:08;;;;;;;0.00;0.00;;;10.60;99.90;;;;;;5048368;28;20183;-76
2023/05/16 22:14:33;;;;;;;0.00;0.00;;;10.60;99.90;;;;;;5039649;28;20184;-76
2023/05/16 22:16:59;;;;;;;0.00;0.00;;;10.50;99.90;;;;;;5041181;28;20207;-76
2023/05/16 22:19:25;;;;;;;0.00;0.00;;;10.50;99.90;;;;;;5044587;28;20669;-76
2023/05/16 22:21:51;;;;;;;0.10;0.10;;;10.50;99.90;;;;;;5036405;28;20191;-78
2023/05/16 22:24:17;;;;;;;0.00;0.00;;;10.50;99.90;;;;;;5031963;28;20668;-76
2023/05/16 22:26:42;;;;;;;0.00;0.00;;;10.40;99.90;;;;;;5038536;28;20188;-76
2023/05/16 22:29:08;;;;;;;0.00;0.00;;;10.40;99.90;;;;;;5048136;28;20187;-76
2023/05/16 22:31:34;;;;;;;0.00;0.00;;;10.40;99.90;;;;;;5042827;28;20233;-76
2023/05/16 22:34:00;;;;;;;0.00;0.00;;;10.40;99.90;;;;;;5039624;28;20199;-75
2023/05/16 22:36:25;;;;;;;0.10;0.10;;;10.40;99.90;;;;;;5046372;28;20227;-76
2023/05/16 22:38:51;;;;;;;0.00;0.00;;;10.40;99.90;;;;;;5028233;28;20200;-77
2023/05/16 22:41:17;;;;;;;0.00;0.00;;;10.40;99.90;;;;;;5038931;28;20222;-77
2023/05/16 22:43:42;;;;;;;0.00;0.00;;;10.40;99.90;;;;;;5042796;28;20292;-74
2023/05/16 22:46:08;;;;;;;0.00;0.00;;;10.40;99.90;;;;;;5039042;28;20213;-75
2023/05/16 22:48:33;;;;;;;0.00;0.00;;;10.30;99.90;;;;;;5036125;28;20287;-76
2023/05/16 22:50:59;;;;;;;0.00;0.00;;;10.40;99.90;;;;;;5043393;28;20251;-75
2023/05/16 22:53:25;;;;;;;0.00;0.00;;;10.40;99.90;;;;;;5045169;28;20173;-75
2023/05/16 22:55:50;;;;;;;0.05;0.05;;;10.30;99.90;;;;;;5038545;28;20185;-76
2023/05/16 22:58:16;;;;;;;0.10;0.10;;;10.30;99.90;;;;;;5038329;28;20269;-76
2023/05/16 23:00:42;;;;;;;0.03;0.03;;;10.30;99.90;;;;;;5044442;28;20176;-76
2023/05/16 23:03:07;;;;;;;0.00;0.00;;;10.30;99.90;;;;;;5042476;28;20205;-76
2023/05/16 23:05:33;;;;;;;0.00;0.00;;;10.20;99.90;;;;;;5030308;28;20268;-75
2023/05/16 23:07:58;;;;;;;0.10;0.10;;;10.20;99.90;;;;;;5045342;28;20701;-75
2023/05/16 23:10:24;;;;;;;0.00;0.00;;;10.20;99.90;;;;;;5043746;28;20179;-76
2023/05/16 23:12:49;;;;;;;0.00;0.00;;;10.10;99.90;;;;;;5042272;28;21523;-76
2023/05/16 23:15:15;;;;;;;0.00;0.00;;;10.10;99.90;;;;;;5044056;28;20184;-75
2023/05/16 23:17:40;;;;;;;0.05;0.05;;;10.00;99.90;;;;;;5047357;28;20722;-76
2023/05/16 23:20:06;;;;;;;0.00;0.00;;;10.00;99.90;;;;;;5047952;28;20278;-77
2023/05/16 23:22:32;;;;;;;0.10;0.10;;;10.00;99.90;;;;;;5036438;28;20172;-77
2023/05/16 23:24:58;;;;;;;0.03;0.03;;;10.00;99.90;;;;;;5049827;28;20263;-75
2023/05/16 23:27:23;;;;;;;0.00;0.00;;;10.00;99.90;;;;;;5040130;28;20667;-76
2023/05/16 23:29:49;;;;;;;0.00;0.00;;;10.00;99.90;;;;;;5034577;28;20208;-76
2023/05/16 23:32:14;;;;;;;0.00;0.00;;;10.00;99.90;;;;;;5038948;28;20191;-76
2023/05/16 23:34:40;;;;;;;0.00;0.00;;;9.90;99.90;;;;;;5042191;28;20616;-76
2023/05/16 23:37:05;;;;;;;0.00;0.00;;;9.90;99.90;;;;;;5042132;28;20269;-76
2023/05/16 23:39:31;;;;;;;0.10;0.10;;;9.90;99.90;;;;;;5034275;28;20215;-76
2023/05/16 23:41:59;;;;;;;0.05;0.05;;;9.90;99.90;;;;;;5041823;28;20176;-77
2023/05/16 23:44:25;;;;;;;0.00;0.00;;;9.80;99.90;;;;;;5034251;28;20694;-75
2023/05/16 23:46:50;;;;;;;0.00;0.00;;;9.80;99.90;;;;;;5031493;28;20217;-76
2023/05/16 23:49:16;;;;;;;0.00;0.00;;;9.80;99.90;;;;;;5035188;28;20222;-76
2023/05/16 23:51:41;;;;;;;0.00;0.00;;;9.80;99.90;;;;;;5042113;28;20189;-76
2023/05/16 23:54:07;;;;;;;0.10;0.10;;;9.70;99.90;;;;;;5043112;28;20176;-76
2023/05/16 23:56:32;;;;;;;0.00;0.00;;;9.70;99.90;;;;;;5046397;28;20215;-77
2023/05/16 23:58:58;;;;;;;0.00;0.00;;;9.80;99.90;;;;;;5034757;28;20210;-76
